createdAt,value
2022-09-23T00:01:05.547Z,85.76
2022-09-23T00:03:33.391Z,85.13
2022-09-23T00:06:06.334Z,84.41
2022-09-23T00:08:33.087Z,84.05
2022-09-23T00:11:27.495Z,84.79
2022-09-23T00:13:57.262Z,84.97
2022-09-23T00:16:30.796Z,85.01
2022-09-23T00:18:57.456Z,85.01
2022-09-23T00:21:25.185Z,85.66
2022-09-23T00:23:52.085Z,85.55
2022-09-23T00:26:21.435Z,84.61
2022-09-23T00:28:49.287Z,85.29
2022-09-23T00:31:19.016Z,85.38
2022-09-23T00:33:45.719Z,85.10
2022-09-23T00:36:16.883Z,85.66
2022-09-23T00:38:44.599Z,86.19
2022-09-23T00:41:12.185Z,85.06
2022-09-23T00:43:59.387Z,85.51
2022-09-23T00:46:34.756Z,86.46
2022-09-23T00:49:30.880Z,86.75
2022-09-23T00:52:15.075Z,86.44
2022-09-23T00:54:42.947Z,86.85
2022-09-23T00:57:11.521Z,86.55
2022-09-23T00:59:38.266Z,85.80
2022-09-23T01:02:05.782Z,85.76
2022-09-23T01:04:32.368Z,86.01
2022-09-23T01:06:58.966Z,86.27
2022-09-23T01:09:25.841Z,86.15
2022-09-23T01:12:04.383Z,86.74
2022-09-23T01:15:00.466Z,86.86
2022-09-23T01:17:34.610Z,86.45
2022-09-23T01:20:42.105Z,86.95
2022-09-23T01:23:46.117Z,87.05
2022-09-23T01:26:31.365Z,87.95
2022-09-23T01:29:19.141Z,88.14
2022-09-23T01:31:59.105Z,87.45
2022-09-23T01:34:39.448Z,88.53
2022-09-23T01:37:53.824Z,88.42
2022-09-23T01:40:40.708Z,88.42
2022-09-23T01:43:15.802Z,88.46
2022-09-23T01:45:46.418Z,88.63
2022-09-23T01:48:18.971Z,88.72
2022-09-23T01:50:56.479Z,87.99
2022-09-23T01:53:39.354Z,88.51
2022-09-23T01:56:13.953Z,88.53
2022-09-23T01:58:50.556Z,88.47
2022-09-23T02:01:25.737Z,88.13
2022-09-23T02:04:08.887Z,88.35
2022-09-23T02:06:42.109Z,87.88
2022-09-23T02:09:14.988Z,87.72
2022-09-23T02:11:46.113Z,87.10
2022-09-23T02:14:29.127Z,87.24
2022-09-23T02:17:00.714Z,87.75
2022-09-23T02:19:41.889Z,87.69
2022-09-23T02:22:12.688Z,88.17
2022-09-23T02:24:39.960Z,88.21
2022-09-23T02:27:45.542Z,88.37
2022-09-23T02:30:15.991Z,88.76
2022-09-23T02:32:52.969Z,88.54
2022-09-23T02:35:29.300Z,88.04
2022-09-23T02:38:01.850Z,87.72
2022-09-23T02:40:51.532Z,88.07
2022-09-23T02:43:33.062Z,87.78
2022-09-23T02:46:00.797Z,87.19
2022-09-23T02:48:33.998Z,87.63
2022-09-23T02:51:03.647Z,87.77
2022-09-23T02:53:34.002Z,87.81
2022-09-23T02:56:01.904Z,86.94
2022-09-23T02:58:29.971Z,87.56
2022-09-23T03:01:33.869Z,87.35
2022-09-23T03:04:25.925Z,87.42
2022-09-23T03:06:59.233Z,87.77
2022-09-23T03:09:42.462Z,88.13
2022-09-23T03:12:34.433Z,89.02
2022-09-23T03:15:12.366Z,88.33
2022-09-23T03:17:46.922Z,88.79
2022-09-23T03:20:48.067Z,88.24
2022-09-23T03:23:18.999Z,88.83
2022-09-23T03:25:49.811Z,89.08
2022-09-23T03:28:20.312Z,89.62
2022-09-23T03:30:47.994Z,89.28
2022-09-23T03:33:17.026Z,89.58
2022-09-23T03:36:16.417Z,90.36
2022-09-23T03:38:51.596Z,90.11
2022-09-23T03:41:28.448Z,89.60
2022-09-23T03:43:58.453Z,89.12
2022-09-23T03:46:28.570Z,88.72
2022-09-23T03:49:08.169Z,88.93
2022-09-23T06:53:03.363Z,100.00
2022-09-23T06:55:30.267Z,100.00
2022-09-23T06:57:59.769Z,100.00
2022-09-23T07:00:26.571Z,100.00
2022-09-23T07:02:54.897Z,100.00
2022-09-23T07:05:22.482Z,100.00
2022-09-23T07:07:49.193Z,100.00
2022-09-23T07:10:15.927Z,100.00
2022-09-23T07:12:42.547Z,100.00
2022-09-23T07:15:09.951Z,100.00
2022-09-23T07:17:36.595Z,100.00
2022-09-23T07:20:04.056Z,99.86
2022-09-23T07:22:30.692Z,99.16
2022-09-23T07:24:57.358Z,98.39
2022-09-23T07:27:25.908Z,97.21
2022-09-23T07:29:52.951Z,95.56
2022-09-23T07:32:21.980Z,93.76
2022-09-23T07:34:49.072Z,93.00
2022-09-23T07:37:17.303Z,92.03
2022-09-23T07:39:44.920Z,90.06
2022-09-23T07:42:13.352Z,88.86
2022-09-23T07:44:44.067Z,88.83
2022-09-23T07:47:11.223Z,88.77
2022-09-23T07:49:38.478Z,88.12
2022-09-23T07:52:05.379Z,87.23
2022-09-23T07:54:32.254Z,87.18
2022-09-23T07:57:00.246Z,86.38
2022-09-23T07:59:27.351Z,85.34
2022-09-23T08:01:56.754Z,85.23
2022-09-23T08:04:25.517Z,83.35
2022-09-23T08:06:57.760Z,84.01
2022-09-23T08:09:28.412Z,82.98
2022-09-23T08:11:55.451Z,82.94
2022-09-23T08:14:24.916Z,82.60
2022-09-23T08:16:52.353Z,82.29
2022-09-23T08:19:19.228Z,81.39
2022-09-23T08:21:49.947Z,81.55
2022-09-23T08:24:21.893Z,81.52
2022-09-23T08:26:48.756Z,80.94
2022-09-23T08:29:17.009Z,80.35
2022-09-23T08:31:44.243Z,81.00
2022-09-23T08:34:11.206Z,81.32
2022-09-23T08:36:38.361Z,80.82
2022-09-23T08:39:06.247Z,80.13
2022-09-23T08:41:43.561Z,80.39
2022-09-23T08:44:55.199Z,79.41
2022-09-23T08:47:39.994Z,77.83
2022-09-23T08:50:15.109Z,76.94
2022-09-23T08:52:47.424Z,76.61
2022-09-23T08:55:15.810Z,77.18
2022-09-23T08:58:25.883Z,74.24
2022-09-23T09:01:30.100Z,76.77
2022-09-23T09:04:52.426Z,75.27
2022-09-23T09:07:38.919Z,76.15
2022-09-23T09:10:20.630Z,73.32
2022-09-23T09:13:00.233Z,73.50
2022-09-23T09:15:28.473Z,73.79
2022-09-23T09:18:10.225Z,72.10
2022-09-23T09:20:57.017Z,71.85
2022-09-23T09:23:32.469Z,72.95
2022-09-23T09:26:01.798Z,71.12
2022-09-23T09:28:40.700Z,69.58
2022-09-23T09:31:31.687Z,69.61
2022-09-23T09:34:06.284Z,68.20
2022-09-23T09:37:07.182Z,68.06
2022-09-23T09:39:35.965Z,67.21
2022-09-23T09:42:04.372Z,66.18
2022-09-23T09:44:39.387Z,67.56
2022-09-23T09:47:18.234Z,66.95
2022-09-23T09:50:06.027Z,65.42
2022-09-23T09:52:33.083Z,64.61
2022-09-23T09:55:14.540Z,63.19
2022-09-23T09:57:57.466Z,63.30
2022-09-23T10:00:25.403Z,61.79
2022-09-23T10:03:13.325Z,59.39
2022-09-23T10:05:45.865Z,56.40
2022-09-23T10:08:18.500Z,55.26
2022-09-23T10:11:18.519Z,55.49
2022-09-23T10:14:00.500Z,55.99
2022-09-23T10:16:28.617Z,59.20
2022-09-23T10:18:57.071Z,57.25
2022-09-23T10:21:27.963Z,56.66
2022-09-23T10:23:58.317Z,56.43
2022-09-23T10:26:33.875Z,54.41
2022-09-23T10:29:20.595Z,54.38
2022-09-23T10:31:47.224Z,57.55
2022-09-23T10:34:26.681Z,55.64
2022-09-23T10:37:17.123Z,57.88
2022-09-23T10:40:02.390Z,56.80
2022-09-23T10:42:56.533Z,56.70
2022-09-23T10:46:08.315Z,54.70
2022-09-23T10:49:09.143Z,53.66
2022-09-23T10:51:57.712Z,56.32
2022-09-23T10:54:33.222Z,53.79
2022-09-23T10:57:43.675Z,56.04
2022-09-23T11:00:17.618Z,55.12
2022-09-23T11:03:13.745Z,54.33
2022-09-23T11:06:00.854Z,52.37
2022-09-23T11:08:40.154Z,54.73
2022-09-23T11:11:19.016Z,52.62
2022-09-23T11:14:07.730Z,54.65
2022-09-23T11:16:43.594Z,53.16
2022-09-23T11:19:48.362Z,52.95
2022-09-23T11:22:36.264Z,53.52
2022-09-23T11:25:18.314Z,51.82
2022-09-23T11:27:57.139Z,51.89
2022-09-23T11:30:48.143Z,52.05
2022-09-23T11:33:29.438Z,50.51
2022-09-23T11:36:01.905Z,50.57
2022-09-23T11:38:37.134Z,48.13
2022-09-23T11:41:32.862Z,48.00
2022-09-23T11:44:08.080Z,49.61
2022-09-23T11:46:45.500Z,47.94
2022-09-23T11:49:32.834Z,48.87
2022-09-23T11:52:08.638Z,48.42
2022-09-23T11:54:40.240Z,49.77
2022-09-23T11:57:15.124Z,48.47
2022-09-23T12:02:30.487Z,49.06
2022-09-23T12:05:09.533Z,46.42
2022-09-23T12:08:21.002Z,46.72
2022-09-23T12:10:58.760Z,44.70
2022-09-23T12:13:48.291Z,46.10
2022-09-23T12:16:33.721Z,46.50
2022-09-23T12:19:34.232Z,45.59
2022-09-23T12:22:15.814Z,45.01
2022-09-23T12:25:13.122Z,43.34
2022-09-23T12:27:48.130Z,40.38
2022-09-23T12:30:23.449Z,42.83
2022-09-23T12:32:50.518Z,42.25
2022-09-23T12:35:41.898Z,40.76
2022-09-23T12:38:26.462Z,40.72
2022-09-23T12:40:55.949Z,40.62
2022-09-23T12:43:30.998Z,38.14
2022-09-23T12:46:17.643Z,39.03
2022-09-23T12:48:58.098Z,37.07
2022-09-23T12:51:27.414Z,39.50
2022-09-23T12:53:55.949Z,37.97
2022-09-23T12:56:22.753Z,39.77
2022-09-23T12:58:49.339Z,38.70
2022-09-23T13:01:17.234Z,37.69
2022-09-23T13:04:09.011Z,36.74
2022-09-23T13:06:47.960Z,37.91
2022-09-23T13:09:22.641Z,38.41
2022-09-23T13:11:50.430Z,37.31
2022-09-23T13:14:25.297Z,38.27
2022-09-23T13:16:58.418Z,37.50
2022-09-23T13:19:28.150Z,36.06
2022-09-23T13:21:54.696Z,37.10
2022-09-23T13:24:31.235Z,37.31
2022-09-23T13:27:11.732Z,35.24
2022-09-23T13:29:46.728Z,38.50
2022-09-23T13:32:17.859Z,35.24
2022-09-23T13:34:48.124Z,36.98
2022-09-23T13:37:22.622Z,37.03
2022-09-23T13:39:50.240Z,36.55
2022-09-23T13:42:27.826Z,37.71
2022-09-23T13:44:57.573Z,36.56
2022-09-23T13:47:27.552Z,36.97
2022-09-23T13:49:54.253Z,35.97
2022-09-23T13:52:26.456Z,37.18
2022-09-23T13:54:53.358Z,36.42
2022-09-23T13:57:27.746Z,36.43
2022-09-23T13:59:54.321Z,37.99
2022-09-23T14:02:21.013Z,36.27
2022-09-23T14:04:47.651Z,36.42
2022-09-23T14:07:16.291Z,37.56
2022-09-23T14:09:50.047Z,37.46
2022-09-23T14:12:22.194Z,38.98
2022-09-23T14:14:51.811Z,39.21
2022-09-23T14:17:22.903Z,38.03
2022-09-23T14:19:50.824Z,37.64
2022-09-23T14:22:35.584Z,37.08
2022-09-23T14:25:03.415Z,38.81
2022-09-23T14:27:32.421Z,39.36
2022-09-23T14:30:00.346Z,37.85
2022-09-23T14:32:29.567Z,39.65
2022-09-23T14:35:05.235Z,38.19
2022-09-23T14:37:56.444Z,39.02
2022-09-23T14:40:23.069Z,38.14
2022-09-23T14:42:52.370Z,39.72
2022-09-23T14:45:25.869Z,39.63
2022-09-23T14:47:59.074Z,39.42
2022-09-23T14:50:43.801Z,40.37
2022-09-23T14:53:22.743Z,39.60
2022-09-23T14:55:57.406Z,38.44
2022-09-23T14:58:28.667Z,39.73
2022-09-23T15:01:00.527Z,40.21
2022-09-23T15:03:28.601Z,40.22
2022-09-23T15:06:08.356Z,39.88
2022-09-23T15:08:35.875Z,37.53
2022-09-23T15:11:08.091Z,39.44
2022-09-23T15:13:41.691Z,40.78
2022-09-23T15:16:08.596Z,41.55
2022-09-23T15:18:38.393Z,39.99
2022-09-23T15:21:11.878Z,41.11
2022-09-23T15:23:44.581Z,40.99
2022-09-23T15:26:16.222Z,40.93
2022-09-23T15:28:43.965Z,41.69
2022-09-23T15:31:16.006Z,41.38
2022-09-23T15:33:47.766Z,41.71
2022-09-23T15:36:23.379Z,40.00
2022-09-23T15:38:50.148Z,41.83
2022-09-23T15:41:17.598Z,43.01
2022-09-23T15:43:44.227Z,43.57
2022-09-23T15:46:26.461Z,43.38
2022-09-23T15:49:06.188Z,42.74
2022-09-23T15:51:33.250Z,43.36
2022-09-23T15:53:59.839Z,43.65
2022-09-23T15:56:29.230Z,43.95
2022-09-23T15:58:55.760Z,43.31
2022-09-23T16:01:34.475Z,43.54
2022-09-23T16:04:01.937Z,43.99
2022-09-23T16:06:28.675Z,43.90
2022-09-23T16:08:55.767Z,44.69
2022-09-23T16:11:32.879Z,44.76
2022-09-23T16:14:00.877Z,45.64
2022-09-23T16:16:28.288Z,46.54
2022-09-23T16:18:55.161Z,46.55
2022-09-23T16:21:27.643Z,46.22
2022-09-23T16:23:57.323Z,46.68
2022-09-23T16:26:34.652Z,46.99
2022-09-23T16:29:02.326Z,47.79
2022-09-23T16:31:32.732Z,47.37
2022-09-23T16:34:02.570Z,48.20
2022-09-23T16:36:39.290Z,48.04
2022-09-23T16:39:08.901Z,48.40
2022-09-23T16:41:35.551Z,48.45
2022-09-23T16:44:04.825Z,48.25
2022-09-23T16:46:32.402Z,48.06
2022-09-23T16:48:59.451Z,48.68
2022-09-23T16:51:28.948Z,48.98
2022-09-23T16:53:58.010Z,48.99
2022-09-23T16:56:28.882Z,49.68
2022-09-23T16:58:56.477Z,49.29
2022-09-23T17:01:44.441Z,50.15
2022-09-23T17:04:12.199Z,51.09
2022-09-23T17:06:50.446Z,51.87
2022-09-23T17:09:23.345Z,52.31
2022-09-23T17:12:01.142Z,52.59
2022-09-23T17:14:31.569Z,54.06
2022-09-23T17:16:59.034Z,54.29
2022-09-23T17:19:25.730Z,54.02
2022-09-23T17:21:53.281Z,54.28
2022-09-23T17:24:19.905Z,54.70
2022-09-23T17:26:51.994Z,55.69
2022-09-23T17:29:19.556Z,55.25
2022-09-23T17:31:46.663Z,55.90
2022-09-23T17:34:13.520Z,57.03
2022-09-23T17:36:40.537Z,57.27
2022-09-23T17:39:07.353Z,56.98
2022-09-23T17:41:34.035Z,58.29
2022-09-23T17:44:00.881Z,58.36
2022-09-23T17:46:30.217Z,59.03
2022-09-23T17:48:57.502Z,58.96
2022-09-23T17:51:27.071Z,59.68
2022-09-23T17:53:53.837Z,59.73
2022-09-23T17:56:23.100Z,60.86
2022-09-23T17:58:50.296Z,60.54
2022-09-23T18:01:22.611Z,62.07
2022-09-23T18:04:00.266Z,61.34
2022-09-23T18:06:29.132Z,62.53
2022-09-23T18:08:58.611Z,62.03
2022-09-23T18:11:26.271Z,63.60
2022-09-23T18:13:58.019Z,62.62
2022-09-23T18:16:45.631Z,62.20
2022-09-23T18:19:14.714Z,63.76
2022-09-23T18:21:44.247Z,63.62
2022-09-23T18:24:31.359Z,64.09
2022-09-23T18:26:59.747Z,63.63
2022-09-23T18:29:26.729Z,64.44
2022-09-23T18:31:53.445Z,64.09
2022-09-23T18:34:20.456Z,64.04
2022-09-23T18:36:47.177Z,64.62
2022-09-23T18:39:13.789Z,64.91
2022-09-23T18:41:41.240Z,64.01
2022-09-23T18:44:08.530Z,65.20
2022-09-23T18:46:35.853Z,64.48
2022-09-23T18:49:20.948Z,65.41
2022-09-23T18:51:54.262Z,65.52
2022-09-23T18:54:22.593Z,65.65
2022-09-23T18:56:52.480Z,66.10
2022-09-23T18:59:23.863Z,65.74
2022-09-23T19:01:51.483Z,67.96
2022-09-23T19:04:20.453Z,66.71
2022-09-23T19:06:47.900Z,67.39
2022-09-23T19:09:17.665Z,67.96
2022-09-23T19:11:44.475Z,68.25
2022-09-23T19:14:12.316Z,67.55
2022-09-23T19:16:40.734Z,68.12
2022-09-23T19:19:08.145Z,70.17
2022-09-23T19:21:35.587Z,70.15
2022-09-23T19:24:06.051Z,69.87
2022-09-23T19:26:43.127Z,70.55
2022-09-23T19:29:14.630Z,70.18
2022-09-23T19:31:42.164Z,70.84
2022-09-23T19:34:14.903Z,70.69
2022-09-23T19:36:44.366Z,70.69
2022-09-23T19:39:21.348Z,70.77
2022-09-23T19:41:48.930Z,69.77
2022-09-23T19:44:16.665Z,69.96
2022-09-23T19:46:53.647Z,71.40
2022-09-23T19:49:23.933Z,71.11
2022-09-23T19:51:50.639Z,72.17
2022-09-23T19:54:20.863Z,71.41
2022-09-23T19:56:49.987Z,71.36
2022-09-23T19:59:19.167Z,71.57
2022-09-23T20:01:46.368Z,72.94
2022-09-23T20:04:13.023Z,72.93
2022-09-23T20:06:39.763Z,72.92
2022-09-23T20:09:06.709Z,74.03
2022-09-23T20:11:33.641Z,73.59
2022-09-23T20:14:02.214Z,73.45
2022-09-23T20:16:32.606Z,73.41
2022-09-23T20:19:01.032Z,73.91
2022-09-23T20:21:29.610Z,74.35
2022-09-23T20:23:56.988Z,74.41
2022-09-23T20:26:42.241Z,74.88
2022-09-23T20:29:10.851Z,74.18
2022-09-23T20:31:37.826Z,74.24
2022-09-23T20:34:07.144Z,74.76
2022-09-23T20:36:35.125Z,74.83
2022-09-23T20:39:05.890Z,74.57
2022-09-23T20:41:37.437Z,73.97
2022-09-23T20:44:07.535Z,73.73
2022-09-23T20:46:35.132Z,73.80
2022-09-23T20:49:02.502Z,74.60
2022-09-23T20:51:29.520Z,74.97
2022-09-23T20:53:56.094Z,75.41
2022-09-23T20:56:23.319Z,75.61
2022-09-23T20:58:52.176Z,75.88
2022-09-23T21:01:19.437Z,75.92
2022-09-23T21:03:49.265Z,76.56
2022-09-23T21:06:19.028Z,76.66
2022-09-23T21:08:46.304Z,76.69
2022-09-23T21:11:15.624Z,76.92
2022-09-23T21:13:50.351Z,76.60
2022-09-23T21:16:19.101Z,76.51
2022-09-23T21:18:45.828Z,76.72
2022-09-23T21:21:14.390Z,77.50
2022-09-23T21:23:43.394Z,77.82
2022-09-23T21:26:24.798Z,78.06
2022-09-23T21:29:00.101Z,78.12
2022-09-23T21:31:35.736Z,78.10
2022-09-23T21:34:11.663Z,77.91
2022-09-23T21:36:41.490Z,77.66
2022-09-23T21:39:10.409Z,78.31
2022-09-23T21:41:38.509Z,77.99
2022-09-23T21:44:06.667Z,78.13
2022-09-23T21:46:34.289Z,78.38
2022-09-23T21:49:03.551Z,78.34
2022-09-23T21:51:38.624Z,77.21
2022-09-23T21:54:05.756Z,77.30
2022-09-23T21:56:35.253Z,77.70
2022-09-23T21:59:02.176Z,78.29
2022-09-23T22:01:33.642Z,78.29
2022-09-23T22:04:08.203Z,78.14
2022-09-23T22:06:38.092Z,79.14
2022-09-23T22:09:08.694Z,78.86
2022-09-23T22:11:56.047Z,79.14
2022-09-23T22:14:25.943Z,79.29
2022-09-23T22:16:59.185Z,79.91
2022-09-23T22:19:27.696Z,80.06
2022-09-23T22:21:55.918Z,79.55
2022-09-23T22:24:22.724Z,80.08
2022-09-23T22:26:49.333Z,80.31
2022-09-23T22:29:35.567Z,80.02
2022-09-23T22:32:22.424Z,80.18
2022-09-23T22:34:50.953Z,80.20
2022-09-23T22:37:28.215Z,79.83
2022-09-23T22:39:55.059Z,80.20
2022-09-23T22:42:22.642Z,80.01
2022-09-23T22:44:49.829Z,80.75
2022-09-23T22:47:18.034Z,80.82
2022-09-23T22:49:46.002Z,81.05
2022-09-23T22:52:15.894Z,81.53
2022-09-23T22:54:42.523Z,81.61
2022-09-23T22:57:09.447Z,81.80
2022-09-23T22:59:37.518Z,81.67
2022-09-23T23:02:05.114Z,82.05
2022-09-23T23:04:31.899Z,82.04
2022-09-23T23:06:58.996Z,82.35
2022-09-23T23:09:25.900Z,82.35
2022-09-23T23:11:52.472Z,82.35
2022-09-23T23:14:19.303Z,82.35
2022-09-23T23:16:46.244Z,82.47
2022-09-23T23:19:17.000Z,82.79
2022-09-23T23:21:45.305Z,81.72
2022-09-23T23:24:20.805Z,82.13
2022-09-23T23:26:47.761Z,82.76
2022-09-23T23:29:15.915Z,82.65
2022-09-23T23:31:42.920Z,82.42
2022-09-23T23:34:28.207Z,82.78
2022-09-23T23:36:55.301Z,82.53
2022-09-23T23:39:23.745Z,82.54
2022-09-23T23:41:55.124Z,82.40
2022-09-23T23:44:23.923Z,82.45
2022-09-23T23:46:50.826Z,82.65
2022-09-23T23:49:17.486Z,82.96
2022-09-23T23:51:44.208Z,82.80
2022-09-23T23:54:11.974Z,82.51
2022-09-23T23:56:38.581Z,83.02
2022-09-23T23:59:05.204Z,83.36
